Kit Carson, Colorado
Current Conditions -  °F | °C
As of 7:53 AM on Thursday 23 Oct 2014 (Local Time) from KITR Reporting Station
Haze Haze  
Wind Chill: 45°   Ceiling: Unl
Heat Index: 45°   Visibility: 6mi
Dew Point: 42°   Wind: 3mph
Humidity: 90%   Direction: 260°W
Pressure: 30.16"   Gusts: NA
Location:  38.76°N, 102.79°W
Report Text: KITR 231353Z AUTO 26003KT 6SM BR CLR 07/06 A3016 RMK AO2 SLP194 T00720056
Loading
Personal Weather Stations






























Interactive Weather Map
Tropical Storm Tracking
New forecast layout! Learn more

10-Day Weather Forecast

Advertisements
Track Severe Weather on mobile